createdAt,value
2018-07-09T00:01:37.080Z,87.50
2018-07-09T00:04:04.076Z,87.30
2018-07-09T00:06:31.130Z,88.30
2018-07-09T00:08:58.112Z,88.30
2018-07-09T00:11:25.112Z,88.40
2018-07-09T00:13:52.183Z,89.40
2018-07-09T00:16:19.176Z,90.20
2018-07-09T00:18:46.170Z,90.30
2018-07-09T00:21:14.187Z,90.10
2018-07-09T00:26:21.710Z,90.60
2018-07-09T00:28:48.697Z,90.80
2018-07-09T00:31:15.696Z,91.00
2018-07-09T00:33:43.708Z,90.90
2018-07-09T00:38:38.749Z,90.20
2018-07-09T00:41:05.809Z,90.30
2018-07-09T00:43:32.809Z,89.80
2018-07-09T00:45:59.804Z,89.60
2018-07-09T00:48:26.855Z,89.30
2018-07-09T00:50:53.860Z,89.10
2018-07-09T00:53:20.863Z,88.60
2018-07-09T00:55:47.924Z,90.00
2018-07-09T00:58:14.920Z,90.10
2018-07-09T01:00:41.917Z,90.30
2018-07-09T01:03:08.973Z,90.60
2018-07-09T01:05:35.955Z,90.90
2018-07-09T01:08:02.957Z,91.40
2018-07-09T01:10:30.019Z,90.80
2018-07-09T01:12:57.910Z,91.60
2018-07-09T01:15:24.909Z,91.80
2018-07-09T01:22:47.085Z,93.50
2018-07-09T01:25:14.160Z,92.20
2018-07-09T01:27:41.172Z,93.40
2018-07-09T01:30:08.184Z,92.90
2018-07-09T01:32:35.226Z,93.10
2018-07-09T01:37:40.242Z,92.80
2018-07-09T01:40:07.251Z,92.00
2018-07-09T01:42:34.246Z,90.80
2018-07-09T01:45:01.284Z,90.50
2018-07-09T01:47:28.276Z,90.70
2018-07-09T01:52:23.351Z,92.00
2018-07-09T01:54:51.283Z,91.20
2018-07-09T01:57:18.290Z,90.10
2018-07-09T01:59:45.353Z,90.30
2018-07-09T02:02:12.356Z,90.00
2018-07-09T02:04:39.356Z,88.70
2018-07-09T02:07:06.400Z,89.80
2018-07-09T02:09:33.406Z,90.10
2018-07-09T02:12:00.407Z,88.70
2018-07-09T02:14:27.448Z,88.40
2018-07-09T02:16:54.453Z,89.60
2018-07-09T02:19:21.455Z,90.60
2018-07-09T02:21:49.510Z,90.80
2018-07-09T02:24:16.514Z,90.10
2018-07-09T02:26:43.519Z,89.50
2018-07-09T02:29:10.553Z,90.50
2018-07-09T02:31:37.552Z,91.10
2018-07-09T02:34:04.558Z,91.10
2018-07-09T02:36:31.604Z,90.00
2018-07-09T02:38:58.599Z,89.80
2018-07-09T02:41:25.597Z,90.20
2018-07-09T02:46:31.161Z,89.80
2018-07-09T02:48:58.244Z,89.70
2018-07-09T02:51:25.208Z,90.10
2018-07-09T02:53:52.211Z,90.30
2018-07-09T02:56:19.248Z,90.70
2018-07-09T02:58:46.251Z,90.30
2018-07-09T03:01:14.143Z,91.40
2018-07-09T03:03:41.060Z,91.20
2018-07-09T03:06:08.115Z,91.40
2018-07-09T03:08:35.064Z,91.40
2018-07-09T03:11:02.098Z,90.20
2018-07-09T03:13:29.119Z,90.20
2018-07-09T03:15:56.133Z,89.20
2018-07-09T03:18:23.206Z,89.60
2018-07-09T03:20:50.209Z,90.00
2018-07-09T03:23:17.204Z,89.40
2018-07-09T03:30:38.441Z,89.90
2018-07-09T03:33:05.499Z,90.40
2018-07-09T03:37:59.585Z,90.40
2018-07-09T03:40:26.639Z,90.90
2018-07-09T03:45:20.719Z,91.20
2018-07-09T03:47:47.770Z,90.70
2018-07-09T03:50:15.700Z,90.40
2018-07-09T03:52:42.693Z,89.50
2018-07-09T03:55:09.759Z,89.00
2018-07-09T04:00:16.225Z,89.40
2018-07-09T04:02:44.190Z,90.00
2018-07-09T04:05:11.182Z,88.70
2018-07-09T04:07:38.285Z,89.80
2018-07-09T04:10:05.296Z,89.40
2018-07-09T04:12:32.284Z,90.10
2018-07-09T04:14:59.327Z,91.00
2018-07-09T04:17:26.315Z,90.70
2018-07-09T04:19:53.317Z,91.00
2018-07-09T04:22:20.414Z,91.50
2018-07-09T04:24:47.402Z,91.50
2018-07-09T04:27:15.117Z,91.70
2018-07-09T04:29:42.865Z,92.80
2018-07-09T04:32:09.858Z,92.10
2018-07-09T04:34:36.854Z,92.10
2018-07-09T04:37:03.920Z,93.20
2018-07-09T04:39:30.931Z,94.40
2018-07-09T04:41:57.924Z,95.70
2018-07-09T04:44:24.963Z,95.90
2018-07-09T04:46:52.804Z,97.70
2018-07-09T04:49:19.801Z,97.50
2018-07-09T04:51:46.861Z,98.50
2018-07-09T04:54:13.865Z,98.90
2018-07-09T04:56:40.877Z,98.20
2018-07-09T04:59:07.920Z,97.10
2018-07-09T05:01:34.919Z,97.90
2018-07-09T05:04:01.916Z,97.00
2018-07-09T05:06:28.950Z,96.30
2018-07-09T05:08:55.950Z,96.80
2018-07-09T05:13:50.115Z,91.50
2018-07-09T05:18:55.627Z,93.80
2018-07-09T05:21:22.620Z,94.70
2018-07-09T05:23:49.611Z,94.50
2018-07-09T05:26:17.619Z,95.10
2018-07-09T05:28:44.620Z,93.60
2018-07-09T05:31:11.615Z,95.50
2018-07-09T05:33:38.654Z,95.90
2018-07-09T05:36:05.650Z,96.00
2018-07-09T05:40:59.769Z,95.10
2018-07-09T05:43:26.781Z,93.50
2018-07-09T05:48:20.910Z,94.00
2018-07-09T05:50:47.911Z,93.80
2018-07-09T05:53:14.906Z,92.40
2018-07-09T05:55:41.979Z,91.80
2018-07-09T05:58:08.986Z,90.90
2018-07-09T06:00:35.988Z,91.60
2018-07-09T06:03:03.053Z,92.20
2018-07-09T06:07:57.169Z,93.30
2018-07-09T06:10:24.212Z,93.80
2018-07-09T06:12:51.988Z,94.10
2018-07-09T06:15:18.984Z,95.00
2018-07-09T06:17:46.921Z,94.90
2018-07-09T06:20:13.921Z,95.40
2018-07-09T06:22:40.922Z,93.70
2018-07-09T06:25:07.978Z,94.70
2018-07-09T06:27:34.990Z,91.80
2018-07-09T06:32:41.439Z,93.00
2018-07-09T06:35:08.436Z,90.30
2018-07-09T06:37:35.445Z,90.00
2018-07-09T06:40:02.516Z,89.60
2018-07-09T06:42:29.516Z,89.00
2018-07-09T06:44:56.520Z,88.40
2018-07-09T06:47:23.566Z,89.30
2018-07-09T06:49:50.572Z,87.00
2018-07-09T06:52:17.579Z,84.30
2018-07-09T06:54:44.646Z,80.00
2018-07-09T06:57:11.649Z,81.70
2018-07-09T06:59:38.646Z,83.20
2018-07-09T07:02:05.689Z,83.80
2018-07-09T07:04:32.696Z,78.80
2018-07-09T07:06:59.694Z,78.20
2018-07-09T07:09:26.757Z,79.10
2018-07-09T07:11:53.757Z,80.00
2018-07-09T07:14:20.779Z,80.20
2018-07-09T07:16:48.314Z,75.30
2018-07-09T07:19:15.303Z,67.10
2018-07-09T07:21:42.301Z,64.80
2018-07-09T07:24:09.374Z,66.20
2018-07-09T07:26:36.396Z,65.80
2018-07-09T07:29:03.417Z,63.50
2018-07-09T07:31:30.455Z,60.00
2018-07-09T07:33:57.459Z,60.70
2018-07-09T07:36:25.297Z,59.80
2018-07-09T07:38:52.330Z,59.50
2018-07-09T07:41:20.036Z,51.30
2018-07-09T07:43:47.034Z,55.60
2018-07-09T07:46:14.112Z,54.30
2018-07-09T07:51:20.583Z,44.80
2018-07-09T07:53:47.579Z,45.30
2018-07-09T07:56:14.602Z,42.90
2018-07-09T08:01:10.516Z,43.00
2018-07-09T08:03:37.519Z,37.00
2018-07-09T08:06:04.574Z,36.30
2018-07-09T08:08:31.576Z,39.30
2018-07-09T08:13:29.227Z,36.80
2018-07-09T08:15:52.718Z,34.90
2018-07-09T08:20:47.818Z,30.40
2018-07-09T08:23:14.802Z,31.80
2018-07-09T08:25:41.904Z,33.40
2018-07-09T08:28:08.858Z,33.50
2018-07-09T08:30:35.849Z,29.80
2018-07-09T08:33:03.846Z,26.70
2018-07-09T08:35:31.070Z,27.20
2018-07-09T08:37:58.067Z,23.80
2018-07-09T08:40:25.066Z,22.10
2018-07-09T08:42:52.119Z,20.80
2018-07-09T08:45:19.114Z,20.50
2018-07-09T08:50:13.250Z,17.30
2018-07-09T08:52:40.261Z,18.10
2018-07-09T08:55:07.254Z,17.10
2018-07-09T08:57:34.312Z,18.50
2018-07-09T09:00:01.302Z,16.30
2018-07-09T09:02:28.298Z,15.50
2018-07-09T09:04:55.378Z,15.10
2018-07-09T09:09:49.520Z,16.50
2018-07-09T09:14:55.042Z,14.30
2018-07-09T09:17:23.050Z,12.90
2018-07-09T09:19:50.053Z,10.50
2018-07-09T09:22:17.053Z,10.80
2018-07-09T09:24:44.107Z,11.80
2018-07-09T09:27:11.925Z,9.60
2018-07-09T09:29:39.863Z,10.30
2018-07-09T09:32:07.762Z,10.10
2018-07-09T09:34:34.758Z,11.40
2018-07-09T09:37:01.755Z,7.10
2018-07-09T09:39:28.789Z,9.10
2018-07-09T09:41:55.784Z,9.80
2018-07-09T09:44:22.785Z,7.90
2018-07-09T09:46:49.862Z,9.30
2018-07-09T09:49:16.890Z,6.60
2018-07-09T09:51:43.845Z,6.30
2018-07-09T09:54:10.883Z,7.60
2018-07-09T09:56:37.878Z,6.10
2018-07-09T09:59:04.876Z,8.40
2018-07-09T10:01:32.790Z,7.80
2018-07-09T10:03:59.794Z,8.10
2018-07-09T10:06:26.792Z,7.50
2018-07-09T10:08:53.844Z,6.80
2018-07-09T10:11:21.175Z,5.90
2018-07-09T10:13:48.178Z,5.70
2018-07-09T10:16:15.238Z,6.70
2018-07-09T10:18:42.239Z,7.30
2018-07-09T10:21:09.225Z,4.20
2018-07-09T10:28:55.722Z,2.90
2018-07-09T10:31:22.721Z,3.30
2018-07-09T10:33:50.561Z,3.10
2018-07-09T10:36:17.626Z,2.60
2018-07-09T10:38:44.624Z,4.60
2018-07-09T10:41:11.631Z,1.70
2018-07-09T10:43:38.672Z,3.50
2018-07-09T10:46:05.676Z,3.90
2018-07-09T10:48:32.667Z,4.50
2018-07-09T10:50:59.727Z,6.60
2018-07-09T10:53:26.744Z,6.00
2018-07-09T10:55:53.736Z,5.60
2018-07-09T10:58:20.802Z,5.10
2018-07-09T11:00:47.845Z,6.20
2018-07-09T11:03:14.801Z,3.90
2018-07-09T11:05:41.844Z,4.90
2018-07-09T11:08:08.847Z,3.00
2018-07-09T11:10:35.870Z,4.30
2018-07-09T11:13:02.949Z,5.30
2018-07-09T11:15:29.949Z,3.90
2018-07-09T11:17:56.944Z,5.70
2018-07-09T11:20:23.987Z,2.90
2018-07-09T11:22:50.981Z,3.20
2018-07-09T11:25:17.984Z,2.90
2018-07-09T11:27:45.026Z,2.20
2018-07-09T11:30:12.018Z,2.00
2018-07-09T11:32:39.026Z,1.50
2018-07-09T11:35:06.093Z,3.60
2018-07-09T11:37:33.104Z,2.40
2018-07-09T11:40:00.109Z,2.10
2018-07-09T11:42:27.143Z,1.70
2018-07-09T11:44:54.161Z,1.00
2018-07-09T11:47:22.104Z,1.00
2018-07-09T11:49:49.966Z,4.40
2018-07-09T11:54:57.482Z,2.90
2018-07-09T11:57:24.491Z,3.10
2018-07-09T11:59:51.498Z,1.20
2018-07-09T12:02:19.399Z,3.30
2018-07-09T12:04:46.428Z,3.60
2018-07-09T12:07:13.396Z,2.90
2018-07-09T12:09:40.444Z,1.30
2018-07-09T12:12:07.433Z,3.00
2018-07-09T12:14:34.440Z,2.90
2018-07-09T12:17:01.479Z,2.80
2018-07-09T12:19:28.481Z,4.30
2018-07-09T12:21:55.491Z,3.90
2018-07-09T12:24:23.510Z,3.90
2018-07-09T12:26:50.519Z,2.40
2018-07-09T12:29:17.513Z,3.20
2018-07-09T12:31:45.514Z,2.60
2018-07-09T12:34:12.511Z,3.00
2018-07-09T12:36:39.503Z,3.50
2018-07-09T12:39:06.574Z,3.50
2018-07-09T12:41:33.590Z,1.00
2018-07-09T12:46:27.733Z,2.50
2018-07-09T12:48:55.487Z,2.50
2018-07-09T12:51:22.473Z,2.60
2018-07-09T12:53:49.548Z,2.70
2018-07-09T12:56:16.557Z,1.00
2018-07-09T12:58:43.558Z,2.50
2018-07-09T13:01:10.606Z,3.30
2018-07-09T13:06:16.150Z,2.50
2018-07-09T13:08:43.151Z,3.90
2018-07-09T13:11:10.144Z,3.00
2018-07-09T13:13:37.203Z,3.40
2018-07-09T13:16:04.188Z,2.90
2018-07-09T13:18:31.201Z,4.20
2018-07-09T13:20:58.264Z,4.60
2018-07-09T13:23:25.449Z,4.10
2018-07-09T13:25:52.987Z,3.00
2018-07-09T13:28:20.023Z,4.10
2018-07-09T13:30:47.027Z,4.00
2018-07-09T13:40:50.948Z,4.30
2018-07-09T13:43:18.109Z,2.80
2018-07-09T13:45:45.025Z,2.30
2018-07-09T13:48:12.028Z,3.50
2018-07-09T13:50:39.091Z,3.40
2018-07-09T13:53:06.079Z,3.20
2018-07-09T13:58:01.186Z,3.00
2018-07-09T14:00:28.172Z,4.30
2018-07-09T14:02:55.180Z,4.20
2018-07-09T14:05:22.221Z,4.90
2018-07-09T14:07:50.085Z,3.90
2018-07-09T14:10:17.132Z,3.90
2018-07-09T14:12:44.121Z,4.00
2018-07-09T14:15:11.126Z,4.00
2018-07-09T14:17:38.121Z,3.60
2018-07-09T14:22:52.063Z,5.30
2018-07-09T14:25:19.120Z,4.90
2018-07-09T14:27:46.106Z,3.50
2018-07-09T14:30:14.041Z,3.80
2018-07-09T14:32:41.083Z,4.90
2018-07-09T14:35:08.089Z,3.50
2018-07-09T14:37:35.076Z,5.00
2018-07-09T14:40:02.128Z,5.90
2018-07-09T14:42:29.141Z,5.40
2018-07-09T14:44:56.957Z,4.70
2018-07-09T14:47:25.000Z,5.50
2018-07-09T14:49:52.010Z,5.60
2018-07-09T14:54:46.860Z,6.90
2018-07-09T14:57:13.942Z,7.20
2018-07-09T14:59:40.842Z,6.20
2018-07-09T15:02:08.814Z,6.40
2018-07-09T15:04:35.865Z,5.90
2018-07-09T15:07:03.656Z,6.20
2018-07-09T15:09:30.745Z,6.50
2018-07-09T15:11:58.483Z,6.50
2018-07-09T15:16:52.619Z,5.80
2018-07-09T15:19:19.621Z,6.90
2018-07-09T15:24:13.770Z,6.70
2018-07-09T15:26:41.535Z,6.80
2018-07-09T15:29:08.521Z,7.10
2018-07-09T15:34:02.657Z,7.90
2018-07-09T15:39:08.179Z,8.10
2018-07-09T15:44:02.269Z,6.60
2018-07-09T15:46:29.538Z,6.80
2018-07-09T15:51:23.396Z,7.90
2018-07-09T15:53:51.374Z,7.80
2018-07-09T15:58:45.458Z,8.60
2018-07-09T16:01:12.527Z,9.00
2018-07-09T16:03:39.522Z,9.10
2018-07-09T16:06:07.382Z,8.30
2018-07-09T16:08:34.393Z,9.20
2018-07-09T16:11:01.410Z,9.30
2018-07-09T16:15:55.568Z,9.50
2018-07-09T16:18:23.426Z,9.00
2018-07-09T16:20:50.445Z,9.10
2018-07-09T16:23:17.480Z,9.50
2018-07-09T16:25:44.488Z,9.70
2018-07-09T16:28:11.483Z,9.40
2018-07-09T16:30:38.556Z,9.50
2018-07-09T16:33:05.544Z,9.30
2018-07-09T16:35:32.540Z,9.70
2018-07-09T16:37:59.610Z,9.70
2018-07-09T16:40:26.608Z,10.00
2018-07-09T16:42:53.618Z,10.00
2018-07-09T16:45:20.892Z,10.20
2018-07-09T16:47:47.727Z,10.00
2018-07-09T16:50:14.724Z,11.20
2018-07-09T16:52:41.847Z,11.00
2018-07-09T16:57:47.306Z,10.90
2018-07-09T17:00:14.312Z,10.90
2018-07-09T17:02:41.304Z,10.40
2018-07-09T17:05:08.366Z,10.30
2018-07-09T17:07:35.802Z,10.40
2018-07-09T17:10:02.831Z,10.70
2018-07-09T17:12:29.908Z,11.00
2018-07-09T17:14:56.934Z,11.00
2018-07-09T17:17:24.885Z,11.80
2018-07-09T17:19:51.937Z,12.60
2018-07-09T17:22:19.931Z,12.70
2018-07-09T17:24:46.926Z,12.00
2018-07-09T17:29:41.093Z,13.40
2018-07-09T17:32:08.146Z,13.40
2018-07-09T17:34:37.610Z,13.00
2018-07-09T17:37:05.243Z,12.70
2018-07-09T17:39:32.252Z,12.40
2018-07-09T17:41:59.288Z,13.00
2018-07-09T17:44:26.303Z,11.40
2018-07-09T17:46:53.319Z,11.40
2018-07-09T17:49:20.400Z,11.40
2018-07-09T17:54:28.439Z,12.00
2018-07-09T17:56:55.435Z,11.40
2018-07-09T17:59:22.853Z,10.90
2018-07-09T18:01:49.927Z,12.00
2018-07-09T18:04:16.940Z,11.70
2018-07-09T18:06:43.966Z,10.70
2018-07-09T18:09:11.020Z,11.10
2018-07-09T18:11:38.023Z,11.50
2018-07-09T18:14:05.546Z,10.50
2018-07-09T18:16:32.592Z,11.60
2018-07-09T18:19:00.316Z,10.50
2018-07-09T18:21:27.420Z,11.50
2018-07-09T18:26:22.457Z,10.70
2018-07-09T18:28:49.469Z,10.90
2018-07-09T18:31:16.546Z,10.90
2018-07-09T18:33:43.581Z,11.80
2018-07-09T18:36:10.604Z,11.80
2018-07-09T18:38:37.690Z,11.70
2018-07-09T18:41:04.666Z,11.30
2018-07-09T18:43:31.680Z,11.10
2018-07-09T18:45:58.732Z,11.00
2018-07-09T18:48:25.839Z,12.10
2018-07-09T18:50:52.737Z,14.00
2018-07-09T18:53:19.784Z,13.20
2018-07-09T18:55:46.775Z,12.60
2018-07-09T18:58:13.829Z,12.90
2018-07-09T19:03:22.584Z,13.20
2018-07-09T19:05:49.658Z,12.30
2018-07-09T19:08:16.667Z,12.70
2018-07-09T19:10:43.821Z,13.10
2018-07-09T19:13:11.367Z,13.30
2018-07-09T19:15:38.369Z,13.20
2018-07-09T19:18:17.454Z,13.20
2018-07-09T19:23:29.957Z,12.90
2018-07-09T19:25:56.463Z,13.70
2018-07-09T19:28:24.198Z,13.40
2018-07-09T19:30:50.569Z,13.80
2018-07-09T19:33:17.227Z,14.20
2018-07-09T19:35:43.751Z,14.60
2018-07-09T19:38:10.484Z,14.50
2018-07-09T19:40:37.408Z,14.40
2018-07-09T19:43:03.968Z,14.70
2018-07-09T19:45:31.835Z,15.00
2018-07-09T19:47:58.356Z,15.60
2018-07-09T19:52:52.368Z,15.90
2018-07-09T20:00:16.813Z,16.20
2018-07-09T20:02:44.808Z,16.90
2018-07-09T20:05:11.700Z,16.60
2018-07-09T20:07:40.099Z,16.50
2018-07-09T20:10:07.284Z,16.60
2018-07-09T20:12:33.795Z,16.10
2018-07-09T20:15:00.954Z,16.50
2018-07-09T20:17:28.398Z,17.10
2018-07-09T20:19:55.591Z,17.50
2018-07-09T20:27:30.401Z,17.90
2018-07-09T20:29:56.860Z,17.50
2018-07-09T20:32:23.357Z,17.50
2018-07-09T20:34:50.091Z,18.00
2018-07-09T20:37:16.760Z,19.00
2018-07-09T20:39:43.320Z,19.30
2018-07-09T20:42:09.953Z,19.20
2018-07-09T20:44:36.495Z,18.80
2018-07-09T20:47:03.091Z,19.40
2018-07-09T20:49:29.663Z,19.40
2018-07-09T20:54:23.249Z,20.00
2018-07-09T20:56:49.844Z,20.90
2018-07-09T20:59:16.406Z,21.20
2018-07-09T21:04:09.856Z,21.40
2018-07-09T21:06:36.371Z,22.50
2018-07-09T21:09:02.871Z,22.20
2018-07-09T21:11:29.430Z,22.10
2018-07-09T21:13:55.947Z,22.30
2018-07-09T21:16:22.483Z,21.60
2018-07-09T21:18:49.013Z,22.30
2018-07-09T21:21:15.523Z,22.10
2018-07-09T21:26:08.948Z,23.20
2018-07-09T21:28:35.512Z,23.60
2018-07-09T21:31:01.972Z,22.90
2018-07-09T21:35:55.401Z,22.80
2018-07-09T21:38:21.913Z,22.60
2018-07-09T21:40:48.850Z,23.20
2018-07-09T21:43:15.351Z,23.70
2018-07-09T21:45:41.921Z,23.60
2018-07-09T21:48:10.556Z,24.90
2018-07-09T21:53:15.075Z,25.90
2018-07-09T21:55:41.551Z,25.10
2018-07-09T21:58:08.840Z,25.20
2018-07-09T22:00:35.425Z,24.40
2018-07-09T22:07:55.681Z,24.70
2018-07-09T22:10:22.216Z,25.00
2018-07-09T22:12:48.718Z,24.80
2018-07-09T22:17:42.205Z,27.30
2018-07-09T22:20:09.483Z,27.60
2018-07-09T22:22:36.464Z,28.00
2018-07-09T22:25:02.963Z,29.20
2018-07-09T22:27:29.475Z,29.70
2018-07-09T22:29:56.029Z,30.00
2018-07-09T22:32:23.023Z,29.80
2018-07-09T22:37:21.538Z,28.40
2018-07-09T22:39:50.256Z,28.10
2018-07-09T22:42:21.164Z,27.80
2018-07-09T22:44:47.588Z,27.40
2018-07-09T22:47:14.461Z,28.30
2018-07-09T22:49:41.461Z,28.20
2018-07-09T22:54:35.617Z,27.10
2018-07-09T22:57:02.617Z,29.40
2018-07-09T22:59:29.648Z,29.40
2018-07-09T23:01:56.643Z,30.20
2018-07-09T23:04:24.820Z,29.40
2018-07-09T23:12:02.663Z,32.80
2018-07-09T23:17:07.315Z,31.40
2018-07-09T23:19:34.651Z,30.40
2018-07-09T23:22:02.588Z,30.60
2018-07-09T23:24:29.440Z,30.30
2018-07-09T23:26:55.938Z,30.70
2018-07-09T23:31:59.400Z,31.10
2018-07-09T23:34:26.888Z,30.90
2018-07-09T23:36:53.382Z,31.60
2018-07-09T23:39:19.958Z,33.00
2018-07-09T23:41:46.469Z,32.90
2018-07-09T23:44:12.993Z,32.80
2018-07-09T23:46:39.538Z,31.80
2018-07-09T23:49:06.873Z,31.70
2018-07-09T23:51:34.330Z,32.50
2018-07-09T23:54:00.890Z,31.70
2018-07-09T23:56:27.929Z,30.70
2018-07-09T23:58:54.916Z,31.70
